sensor_id;sensor_type;location;lat;lon;timestamp;pressure;altitude;pressure_sealevel;temperature;humidity
65718;BME280;52445;52.466;-1.016;2023-04-21T00:00:57;100478.63;;;8.08;68.40
65718;BME280;52445;52.466;-1.016;2023-04-21T00:03:25;100472.56;;;8.06;67.55
65718;BME280;52445;52.466;-1.016;2023-04-21T00:05:55;100469.13;;;8.05;68.52
65718;BME280;52445;52.466;-1.016;2023-04-21T00:08:24;100471.69;;;8.04;67.29
65718;BME280;52445;52.466;-1.016;2023-04-21T00:10:52;100465.63;;;8.02;67.97
65718;BME280;52445;52.466;-1.016;2023-04-21T00:13:19;100457.00;;;8.00;68.62
65718;BME280;52445;52.466;-1.016;2023-04-21T00:15:45;100452.69;;;8.00;68.63
65718;BME280;52445;52.466;-1.016;2023-04-21T00:18:12;100452.66;;;7.98;68.33
65718;BME280;52445;52.466;-1.016;2023-04-21T00:20:38;100449.22;;;7.96;67.89
65718;BME280;52445;52.466;-1.016;2023-04-21T00:23:05;100444.06;;;7.96;68.25
65718;BME280;52445;52.466;-1.016;2023-04-21T00:25:31;100438.84;;;7.93;68.17
65718;BME280;52445;52.466;-1.016;2023-04-21T00:27:58;100440.56;;;7.94;68.17
65718;BME280;52445;52.466;-1.016;2023-04-21T00:30:25;100431.13;;;7.93;67.28
65718;BME280;52445;52.466;-1.016;2023-04-21T00:32:53;100438.81;;;7.92;67.34
65718;BME280;52445;52.466;-1.016;2023-04-21T00:35:20;100437.06;;;7.89;68.54
65718;BME280;52445;52.466;-1.016;2023-04-21T00:37:46;100438.72;;;7.84;68.39
65718;BME280;52445;52.466;-1.016;2023-04-21T00:40:15;100433.53;;;7.81;67.82
65718;BME280;52445;52.466;-1.016;2023-04-21T00:42:42;100432.63;;;7.79;68.79
65718;BME280;52445;52.466;-1.016;2023-04-21T00:45:08;100430.00;;;7.76;68.24
65718;BME280;52445;52.466;-1.016;2023-04-21T00:47:35;100429.97;;;7.72;67.95
65718;BME280;52445;52.466;-1.016;2023-04-21T00:50:02;100417.88;;;7.68;67.96
65718;BME280;52445;52.466;-1.016;2023-04-21T00:52:30;100418.63;;;7.61;68.23
65718;BME280;52445;52.466;-1.016;2023-04-21T00:54:57;100410.00;;;7.61;67.67
65718;BME280;52445;52.466;-1.016;2023-04-21T00:57:25;100402.25;;;7.59;68.50
65718;BME280;52445;52.466;-1.016;2023-04-21T00:59:52;100406.50;;;7.55;67.46
65718;BME280;52445;52.466;-1.016;2023-04-21T01:02:19;100403.84;;;7.51;68.01
65718;BME280;52445;52.466;-1.016;2023-04-21T01:04:47;100396.91;;;7.46;68.17
65718;BME280;52445;52.466;-1.016;2023-04-21T01:07:14;100402.03;;;7.45;67.90
65718;BME280;52445;52.466;-1.016;2023-04-21T01:09:40;100405.44;;;7.42;68.99
65718;BME280;52445;52.466;-1.016;2023-04-21T01:12:09;100401.94;;;7.40;68.36
65718;BME280;52445;52.466;-1.016;2023-04-21T01:14:37;100400.19;;;7.38;68.86
65718;BME280;52445;52.466;-1.016;2023-04-21T01:17:05;100403.59;;;7.35;68.98
65718;BME280;52445;52.466;-1.016;2023-04-21T01:19:36;100401.88;;;7.34;67.99
65718;BME280;52445;52.466;-1.016;2023-04-21T01:22:06;100393.25;;;7.32;68.77
65718;BME280;52445;52.466;-1.016;2023-04-21T01:24:39;100392.38;;;7.30;69.09
65718;BME280;52445;52.466;-1.016;2023-04-21T01:27:11;100380.31;;;7.27;68.99
65718;BME280;52445;52.466;-1.016;2023-04-21T01:29:40;100375.13;;;7.26;67.98
65718;BME280;52445;52.466;-1.016;2023-04-21T01:32:10;100374.22;;;7.24;69.13
65718;BME280;52445;52.466;-1.016;2023-04-21T01:34:38;100370.75;;;7.22;67.61
65718;BME280;52445;52.466;-1.016;2023-04-21T01:37:07;100363.84;;;7.20;69.18
65718;BME280;52445;52.466;-1.016;2023-04-21T01:39:39;100359.53;;;7.18;68.63
65718;BME280;52445;52.466;-1.016;2023-04-21T01:42:06;100355.25;;;7.18;67.93
65718;BME280;52445;52.466;-1.016;2023-04-21T01:44:33;100360.41;;;7.18;68.36
65718;BME280;52445;52.466;-1.016;2023-04-21T01:47:01;100356.19;;;7.24;68.82
65718;BME280;52445;52.466;-1.016;2023-04-21T01:49:27;100353.66;;;7.27;68.99
65718;BME280;52445;52.466;-1.016;2023-04-21T01:51:54;100353.72;;;7.30;69.07
65718;BME280;52445;52.466;-1.016;2023-04-21T01:54:20;100352.88;;;7.32;69.46
65718;BME280;52445;52.466;-1.016;2023-04-21T01:56:47;100356.38;;;7.36;70.01
65718;BME280;52445;52.466;-1.016;2023-04-21T01:59:14;100357.28;;;7.38;69.32
65718;BME280;52445;52.466;-1.016;2023-04-21T02:01:40;100361.63;;;7.42;70.02
65718;BME280;52445;52.466;-1.016;2023-04-21T02:04:07;100352.16;;;7.41;69.95
65718;BME280;52445;52.466;-1.016;2023-04-21T02:06:34;100353.84;;;7.39;69.97
65718;BME280;52445;52.466;-1.016;2023-04-21T02:09:01;100355.50;;;7.34;68.64
65718;BME280;52445;52.466;-1.016;2023-04-21T02:11:28;100346.00;;;7.31;68.96
65718;BME280;52445;52.466;-1.016;2023-04-21T02:13:55;100339.06;;;7.27;69.84
65718;BME280;52445;52.466;-1.016;2023-04-21T02:16:22;100330.41;;;7.24;69.18
65718;BME280;52445;52.466;-1.016;2023-04-21T02:18:53;100328.63;;;7.19;69.20
65718;BME280;52445;52.466;-1.016;2023-04-21T02:21:20;100321.69;;;7.15;68.75
65718;BME280;52445;52.466;-1.016;2023-04-21T02:23:47;100324.19;;;7.11;69.26
65718;BME280;52445;52.466;-1.016;2023-04-21T02:26:13;100310.41;;;7.07;69.21
65718;BME280;52445;52.466;-1.016;2023-04-21T02:28:40;100312.03;;;7.02;70.37
65718;BME280;52445;52.466;-1.016;2023-04-21T02:31:07;100304.25;;;6.97;69.91
65718;BME280;52445;52.466;-1.016;2023-04-21T02:33:35;100299.06;;;6.96;70.82
65718;BME280;52445;52.466;-1.016;2023-04-21T02:36:02;100304.16;;;6.92;69.15
65718;BME280;52445;52.466;-1.016;2023-04-21T02:38:28;100306.72;;;6.91;69.33
65718;BME280;52445;52.466;-1.016;2023-04-21T02:40:56;100305.84;;;6.89;69.87
65718;BME280;52445;52.466;-1.016;2023-04-21T02:43:23;100297.25;;;6.88;70.44
65718;BME280;52445;52.466;-1.016;2023-04-21T02:45:50;100292.94;;;6.87;69.21
65718;BME280;52445;52.466;-1.016;2023-04-21T02:48:17;100286.03;;;6.86;70.00
65718;BME280;52445;52.466;-1.016;2023-04-21T02:50:49;100294.59;;;6.85;70.79
65718;BME280;52445;52.466;-1.016;2023-04-21T02:53:15;100280.84;;;6.83;69.34
65718;BME280;52445;52.466;-1.016;2023-04-21T02:55:42;100279.13;;;6.84;71.07
65718;BME280;52445;52.466;-1.016;2023-04-21T02:58:09;100270.56;;;6.83;69.72
65718;BME280;52445;52.466;-1.016;2023-04-21T03:00:36;100267.13;;;6.84;69.97
65718;BME280;52445;52.466;-1.016;2023-04-21T03:03:03;100263.72;;;6.85;70.58
65718;BME280;52445;52.466;-1.016;2023-04-21T03:05:30;100268.84;;;6.85;71.08
65718;BME280;52445;52.466;-1.016;2023-04-21T03:07:57;100272.28;;;6.84;72.19
65718;BME280;52445;52.466;-1.016;2023-04-21T03:10:23;100272.34;;;6.87;70.93
65718;BME280;52445;52.466;-1.016;2023-04-21T03:12:50;100267.25;;;6.90;72.03
65718;BME280;52445;52.466;-1.016;2023-04-21T03:15:16;100263.88;;;6.94;70.95
65718;BME280;52445;52.466;-1.016;2023-04-21T03:17:44;100263.06;;;6.97;72.07
65718;BME280;52445;52.466;-1.016;2023-04-21T03:20:11;100269.09;;;7.01;72.06
65718;BME280;52445;52.466;-1.016;2023-04-21T03:22:38;100269.16;;;7.04;71.34
65718;BME280;52445;52.466;-1.016;2023-04-21T03:25:05;100270.94;;;7.08;72.26
65718;BME280;52445;52.466;-1.016;2023-04-21T03:27:33;100260.69;;;7.11;72.05
65718;BME280;52445;52.466;-1.016;2023-04-21T03:30:00;100245.28;;;7.14;71.42
65718;BME280;52445;52.466;-1.016;2023-04-21T03:32:27;100252.19;;;7.18;72.57
65718;BME280;52445;52.466;-1.016;2023-04-21T03:34:53;100229.03;;;7.20;71.40
65718;BME280;52445;52.466;-1.016;2023-04-21T03:37:20;100233.38;;;7.23;72.82
65718;BME280;52445;52.466;-1.016;2023-04-21T03:39:47;100223.06;;;7.23;72.77
65718;BME280;52445;52.466;-1.016;2023-04-21T03:42:14;100211.88;;;7.22;73.09
65718;BME280;52445;52.466;-1.016;2023-04-21T03:44:40;100198.16;;;7.25;73.32
65718;BME280;52445;52.466;-1.016;2023-04-21T03:47:07;100188.75;;;7.27;72.29
65718;BME280;52445;52.466;-1.016;2023-04-21T03:49:33;100187.06;;;7.27;73.17
65718;BME280;52445;52.466;-1.016;2023-04-21T03:52:00;100187.06;;;7.29;73.69
65718;BME280;52445;52.466;-1.016;2023-04-21T03:54:27;100174.19;;;7.30;73.23
65718;BME280;52445;52.466;-1.016;2023-04-21T03:56:53;100163.94;;;7.33;73.23
65718;BME280;52445;52.466;-1.016;2023-04-21T03:59:20;100164.81;;;7.34;74.21
65718;BME280;52445;52.466;-1.016;2023-04-21T04:01:47;100143.38;;;7.37;72.58
65718;BME280;52445;52.466;-1.016;2023-04-21T04:04:13;100151.13;;;7.38;73.48
65718;BME280;52445;52.466;-1.016;2023-04-21T04:06:41;100144.25;;;7.40;72.38
65718;BME280;52445;52.466;-1.016;2023-04-21T04:09:07;100143.44;;;7.41;73.97
65718;BME280;52445;52.466;-1.016;2023-04-21T04:11:34;100145.16;;;7.44;73.62
65718;BME280;52445;52.466;-1.016;2023-04-21T04:14:01;100152.91;;;7.45;73.01
65718;BME280;52445;52.466;-1.016;2023-04-21T04:16:27;100137.47;;;7.45;72.77
65718;BME280;52445;52.466;-1.016;2023-04-21T04:18:54;100142.63;;;7.45;74.07
65718;BME280;52445;52.466;-1.016;2023-04-21T04:21:21;100136.63;;;7.48;72.74
65718;BME280;52445;52.466;-1.016;2023-04-21T04:23:49;100134.06;;;7.50;73.88
65718;BME280;52445;52.466;-1.016;2023-04-21T04:26:17;100126.34;;;7.50;74.04
65718;BME280;52445;52.466;-1.016;2023-04-21T04:28:44;100119.44;;;7.50;73.61
65718;BME280;52445;52.466;-1.016;2023-04-21T04:31:11;100118.63;;;7.51;73.69
65718;BME280;52445;52.466;-1.016;2023-04-21T04:33:40;100115.22;;;7.54;73.42
65718;BME280;52445;52.466;-1.016;2023-04-21T04:36:08;100111.72;;;7.52;73.04
65718;BME280;52445;52.466;-1.016;2023-04-21T04:38:37;100113.44;;;7.50;73.41
65718;BME280;52445;52.466;-1.016;2023-04-21T04:41:04;100114.34;;;7.53;72.63
65718;BME280;52445;52.466;-1.016;2023-04-21T04:43:31;100098.03;;;7.53;73.08
65718;BME280;52445;52.466;-1.016;2023-04-21T04:45:59;100108.31;;;7.54;72.97
65718;BME280;52445;52.466;-1.016;2023-04-21T04:48:26;100104.03;;;7.53;74.02
65718;BME280;52445;52.466;-1.016;2023-04-21T04:50:53;100103.19;;;7.53;72.78
65718;BME280;52445;52.466;-1.016;2023-04-21T04:53:20;100096.31;;;7.55;72.71
65718;BME280;52445;52.466;-1.016;2023-04-21T04:55:46;100094.59;;;7.54;73.04
65718;BME280;52445;52.466;-1.016;2023-04-21T04:58:13;100101.44;;;7.52;73.51
65718;BME280;52445;52.466;-1.016;2023-04-21T05:00:40;100107.47;;;7.54;73.11
65718;BME280;52445;52.466;-1.016;2023-04-21T05:03:06;100100.59;;;7.53;73.04
65718;BME280;52445;52.466;-1.016;2023-04-21T05:05:33;100089.44;;;7.54;73.58
65718;BME280;52445;52.466;-1.016;2023-04-21T05:08:00;100079.13;;;7.54;73.69
65718;BME280;52445;52.466;-1.016;2023-04-21T05:10:26;100075.69;;;7.55;73.68
65718;BME280;52445;52.466;-1.016;2023-04-21T05:12:53;100070.53;;;7.55;72.90
65718;BME280;52445;52.466;-1.016;2023-04-21T05:15:20;100074.81;;;7.54;73.46
65718;BME280;52445;52.466;-1.016;2023-04-21T05:17:48;100079.16;;;7.57;74.02
65718;BME280;52445;52.466;-1.016;2023-04-21T05:20:14;100075.69;;;7.55;73.59
65718;BME280;52445;52.466;-1.016;2023-04-21T05:22:41;100074.81;;;7.56;73.04
65718;BME280;52445;52.466;-1.016;2023-04-21T05:25:09;100080.88;;;7.58;73.03
65718;BME280;52445;52.466;-1.016;2023-04-21T05:27:37;100096.31;;;7.56;73.04
65718;BME280;52445;52.466;-1.016;2023-04-21T05:30:03;100098.91;;;7.56;74.35
65718;BME280;52445;52.466;-1.016;2023-04-21T05:32:30;100094.63;;;7.57;74.01
65718;BME280;52445;52.466;-1.016;2023-04-21T05:34:57;100082.56;;;7.56;72.73
65718;BME280;52445;52.466;-1.016;2023-04-21T05:37:25;100084.31;;;7.57;73.13
65718;BME280;52445;52.466;-1.016;2023-04-21T05:39:52;100075.72;;;7.58;72.56
65718;BME280;52445;52.466;-1.016;2023-04-21T05:42:18;100065.41;;;7.58;72.49
65718;BME280;52445;52.466;-1.016;2023-04-21T05:44:45;100062.84;;;7.59;73.62
65718;BME280;52445;52.466;-1.016;2023-04-21T05:47:12;100055.97;;;7.62;72.92
65718;BME280;52445;52.466;-1.016;2023-04-21T05:49:38;100053.41;;;7.63;71.67
65718;BME280;52445;52.466;-1.016;2023-04-21T05:52:08;100051.75;;;7.65;72.54
65718;BME280;52445;52.466;-1.016;2023-04-21T05:54:35;100040.56;;;7.65;72.65
65718;BME280;52445;52.466;-1.016;2023-04-21T05:57:02;100030.25;;;7.66;72.10
65718;BME280;52445;52.466;-1.016;2023-04-21T05:59:29;100023.41;;;7.68;72.80
65718;BME280;52445;52.466;-1.016;2023-04-21T06:01:55;100014.81;;;7.69;72.52
65718;BME280;52445;52.466;-1.016;2023-04-21T06:04:22;100020.84;;;7.71;72.03
65718;BME280;52445;52.466;-1.016;2023-04-21T06:06:49;100020.84;;;7.71;72.97
65718;BME280;52445;52.466;-1.016;2023-04-21T06:09:16;100006.25;;;7.72;72.58
65718;BME280;52445;52.466;-1.016;2023-04-21T06:11:42;100010.53;;;7.71;71.83
65718;BME280;52445;52.466;-1.016;2023-04-21T06:14:09;99996.78;;;7.71;71.76
65718;BME280;52445;52.466;-1.016;2023-04-21T06:16:36;99988.19;;;7.70;72.27
65718;BME280;52445;52.466;-1.016;2023-04-21T06:19:02;100001.03;;;7.66;72.56
65718;BME280;52445;52.466;-1.016;2023-04-21T06:21:29;99995.00;;;7.62;71.53
65718;BME280;52445;52.466;-1.016;2023-04-21T06:23:56;99985.53;;;7.61;72.21
65718;BME280;52445;52.466;-1.016;2023-04-21T06:26:23;99974.38;;;7.62;71.56
65718;BME280;52445;52.466;-1.016;2023-04-21T06:28:49;99970.91;;;7.62;71.93
65718;BME280;52445;52.466;-1.016;2023-04-21T06:31:16;99967.53;;;7.64;72.96
65718;BME280;52445;52.466;-1.016;2023-04-21T06:33:44;99960.66;;;7.66;71.72
65718;BME280;52445;52.466;-1.016;2023-04-21T06:36:11;99957.22;;;7.67;71.66
65718;BME280;52445;52.466;-1.016;2023-04-21T06:38:37;99941.75;;;7.67;72.65
65718;BME280;52445;52.466;-1.016;2023-04-21T06:41:06;99945.19;;;7.68;72.07
65718;BME280;52445;52.466;-1.016;2023-04-21T06:43:33;99926.31;;;7.70;72.71
65718;BME280;52445;52.466;-1.016;2023-04-21T06:46:00;99924.63;;;7.72;71.42
65718;BME280;52445;52.466;-1.016;2023-04-21T06:48:26;99915.16;;;7.73;71.78
65718;BME280;52445;52.466;-1.016;2023-04-21T06:50:55;99923.78;;;7.75;72.74
65718;BME280;52445;52.466;-1.016;2023-04-21T06:53:21;99928.06;;;7.75;71.35
65718;BME280;52445;52.466;-1.016;2023-04-21T06:55:48;99933.13;;;7.62;72.99
65718;BME280;52445;52.466;-1.016;2023-04-21T06:58:15;99937.34;;;7.52;73.98
65718;BME280;52445;52.466;-1.016;2023-04-21T07:00:41;99925.31;;;7.51;72.61
65718;BME280;52445;52.466;-1.016;2023-04-21T07:03:08;99927.91;;;7.56;73.26
65718;BME280;52445;52.466;-1.016;2023-04-21T07:05:35;99906.47;;;7.62;72.38
65718;BME280;52445;52.466;-1.016;2023-04-21T07:08:01;99907.41;;;7.68;72.00
65718;BME280;52445;52.466;-1.016;2023-04-21T07:10:28;99902.28;;;7.75;72.19
65718;BME280;52445;52.466;-1.016;2023-04-21T07:12:55;99898.84;;;7.79;72.56
65718;BME280;52445;52.466;-1.016;2023-04-21T07:15:21;99900.59;;;7.80;72.31
65718;BME280;52445;52.466;-1.016;2023-04-21T07:17:48;99904.03;;;7.82;72.60
65718;BME280;52445;52.466;-1.016;2023-04-21T07:20:15;99902.34;;;7.84;72.52
65718;BME280;52445;52.466;-1.016;2023-04-21T07:22:43;99908.38;;;7.88;72.64
65718;BME280;52445;52.466;-1.016;2023-04-21T07:25:10;99902.34;;;7.87;73.18
65718;BME280;52445;52.466;-1.016;2023-04-21T07:27:38;99898.94;;;7.91;73.42
65718;BME280;52445;52.466;-1.016;2023-04-21T07:30:05;99896.38;;;7.96;73.43
65718;BME280;52445;52.466;-1.016;2023-04-21T07:32:32;99886.91;;;7.93;73.56
65718;BME280;52445;52.466;-1.016;2023-04-21T07:35:00;99886.94;;;7.96;73.33
65718;BME280;52445;52.466;-1.016;2023-04-21T07:37:27;99895.53;;;7.98;72.82
65718;BME280;52445;52.466;-1.016;2023-04-21T07:39:54;99891.25;;;7.99;73.59
65718;BME280;52445;52.466;-1.016;2023-04-21T07:42:20;99896.38;;;7.97;73.52
65718;BME280;52445;52.466;-1.016;2023-04-21T07:44:48;99883.50;;;7.97;73.59
65718;BME280;52445;52.466;-1.016;2023-04-21T07:47:14;99887.84;;;8.05;73.86
65718;BME280;52445;52.466;-1.016;2023-04-21T07:49:41;99884.47;;;8.15;73.66
65718;BME280;52445;52.466;-1.016;2023-04-21T07:52:07;99879.31;;;8.25;73.49
65718;BME280;52445;52.466;-1.016;2023-04-21T07:54:34;99877.63;;;8.31;72.72
65718;BME280;52445;52.466;-1.016;2023-04-21T07:57:00;99876.81;;;8.40;73.01
65718;BME280;52445;52.466;-1.016;2023-04-21T07:59:28;99872.50;;;8.47;73.02
65718;BME280;52445;52.466;-1.016;2023-04-21T08:01:54;99878.59;;;8.57;72.49
65718;BME280;52445;52.466;-1.016;2023-04-21T08:04:21;99875.19;;;8.64;73.05
65718;BME280;52445;52.466;-1.016;2023-04-21T08:06:49;99866.59;;;8.71;73.36
65718;BME280;52445;52.466;-1.016;2023-04-21T08:09:15;99864.88;;;8.77;73.21
65718;BME280;52445;52.466;-1.016;2023-04-21T08:11:43;99868.34;;;8.82;72.34
65718;BME280;52445;52.466;-1.016;2023-04-21T08:14:09;99867.47;;;8.86;72.53
65718;BME280;52445;52.466;-1.016;2023-04-21T08:16:37;99874.38;;;8.89;72.52
65718;BME280;52445;52.466;-1.016;2023-04-21T08:19:06;99864.91;;;8.89;72.87
65718;BME280;52445;52.466;-1.016;2023-04-21T08:21:33;99861.47;;;8.90;72.37
65718;BME280;52445;52.466;-1.016;2023-04-21T08:24:00;99869.22;;;8.95;72.41
65718;BME280;52445;52.466;-1.016;2023-04-21T08:26:27;99864.91;;;8.95;72.33
65718;BME280;52445;52.466;-1.016;2023-04-21T08:28:55;99859.72;;;8.95;72.80
65718;BME280;52445;52.466;-1.016;2023-04-21T08:31:23;99864.06;;;8.96;72.58
65718;BME280;52445;52.466;-1.016;2023-04-21T08:33:49;99855.44;;;8.97;72.72
65718;BME280;52445;52.466;-1.016;2023-04-21T08:36:27;99859.75;;;9.00;72.57
65718;BME280;52445;52.466;-1.016;2023-04-21T08:38:55;99868.38;;;9.00;72.90
65718;BME280;52445;52.466;-1.016;2023-04-21T08:41:23;99864.91;;;9.02;72.58
65718;BME280;52445;52.466;-1.016;2023-04-21T08:43:50;99861.44;;;8.99;72.64
65718;BME280;52445;52.466;-1.016;2023-04-21T08:46:18;99863.19;;;8.97;72.75
65718;BME280;52445;52.466;-1.016;2023-04-21T08:48:45;99858.03;;;8.97;72.77
65718;BME280;52445;52.466;-1.016;2023-04-21T08:51:17;99859.75;;;8.98;72.94
65718;BME280;52445;52.466;-1.016;2023-04-21T08:53:46;99852.88;;;8.99;72.63
65718;BME280;52445;52.466;-1.016;2023-04-21T08:56:12;99852.84;;;8.97;72.89
65718;BME280;52445;52.466;-1.016;2023-04-21T08:58:40;99853.72;;;8.96;73.44
65718;BME280;52445;52.466;-1.016;2023-04-21T09:01:07;99849.41;;;8.98;73.00
65718;BME280;52445;52.466;-1.016;2023-04-21T09:03:34;99847.69;;;9.00;72.92
65718;BME280;52445;52.466;-1.016;2023-04-21T09:06:04;99846.84;;;9.05;72.97
65718;BME280;52445;52.466;-1.016;2023-04-21T09:08:33;99840.81;;;9.06;73.37
65718;BME280;52445;52.466;-1.016;2023-04-21T09:11:00;99848.56;;;9.06;73.35
65718;BME280;52445;52.466;-1.016;2023-04-21T09:13:30;99838.22;;;9.06;73.21
65718;BME280;52445;52.466;-1.016;2023-04-21T09:15:57;99840.78;;;8.99;73.64
65718;BME280;52445;52.466;-1.016;2023-04-21T09:18:26;99832.19;;;9.10;72.67
65718;BME280;52445;52.466;-1.016;2023-04-21T09:21:09;99833.91;;;9.14;73.10
65718;BME280;52445;52.466;-1.016;2023-04-21T09:26:22;99833.88;;;9.26;73.03
65718;BME280;52445;52.466;-1.016;2023-04-21T09:28:50;99834.78;;;9.33;72.87
65718;BME280;52445;52.466;-1.016;2023-04-21T09:31:20;99837.34;;;9.41;73.10
65718;BME280;52445;52.466;-1.016;2023-04-21T09:33:54;99827.84;;;9.49;73.27
65718;BME280;52445;52.466;-1.016;2023-04-21T09:36:27;99833.00;;;9.56;73.18
65718;BME280;52445;52.466;-1.016;2023-04-21T09:41:31;99833.84;;;9.58;73.40
65718;BME280;52445;52.466;-1.016;2023-04-21T09:43:58;99830.41;;;9.56;72.84
65718;BME280;52445;52.466;-1.016;2023-04-21T09:46:28;99829.56;;;9.52;72.99
65718;BME280;52445;52.466;-1.016;2023-04-21T09:48:59;99835.59;;;9.49;73.40
65718;BME280;52445;52.466;-1.016;2023-04-21T09:51:28;99833.88;;;9.45;72.98
65718;BME280;52445;52.466;-1.016;2023-04-21T09:54:19;99838.19;;;9.37;73.11
65718;BME280;52445;52.466;-1.016;2023-04-21T09:56:58;99845.09;;;9.33;73.67
65718;BME280;52445;52.466;-1.016;2023-04-21T09:59:28;99833.91;;;9.30;73.76
65718;BME280;52445;52.466;-1.016;2023-04-21T10:01:55;99835.63;;;9.18;73.72
65718;BME280;52445;52.466;-1.016;2023-04-21T10:04:24;99840.78;;;9.21;73.99
65718;BME280;52445;52.466;-1.016;2023-04-21T10:06:52;99840.81;;;9.12;74.43
65718;BME280;52445;52.466;-1.016;2023-04-21T10:09:21;99847.69;;;9.13;73.87
65718;BME280;52445;52.466;-1.016;2023-04-21T10:11:50;99841.66;;;9.06;73.80
65718;BME280;52445;52.466;-1.016;2023-04-21T10:14:18;99852.84;;;9.08;73.95
65718;BME280;52445;52.466;-1.016;2023-04-21T10:16:55;99854.59;;;9.05;74.17
65718;BME280;52445;52.466;-1.016;2023-04-21T10:19:23;99841.66;;;9.02;74.04
65718;BME280;52445;52.466;-1.016;2023-04-21T10:21:51;99838.22;;;8.96;74.91
65718;BME280;52445;52.466;-1.016;2023-04-21T10:24:20;99834.78;;;8.96;74.80
65718;BME280;52445;52.466;-1.016;2023-04-21T10:26:49;99834.78;;;8.99;75.24
65718;BME280;52445;52.466;-1.016;2023-04-21T10:29:28;99823.56;;;9.08;75.01
65718;BME280;52445;52.466;-1.016;2023-04-21T10:32:31;99821.84;;;9.24;75.17
65718;BME280;52445;52.466;-1.016;2023-04-21T10:35:08;99820.94;;;9.39;75.45
65718;BME280;52445;52.466;-1.016;2023-04-21T10:37:35;99821.78;;;9.50;75.91
65718;BME280;52445;52.466;-1.016;2023-04-21T10:40:01;99815.75;;;9.56;76.28
65718;BME280;52445;52.466;-1.016;2023-04-21T10:42:34;99811.41;;;9.66;75.91
65718;BME280;52445;52.466;-1.016;2023-04-21T10:45:07;99814.91;;;9.59;75.76
65718;BME280;52445;52.466;-1.016;2023-04-21T10:55:28;99812.38;;;9.07;76.34
65718;BME280;52445;52.466;-1.016;2023-04-21T10:57:56;99817.56;;;9.09;77.12
65718;BME280;52445;52.466;-1.016;2023-04-21T11:00:24;99815.81;;;9.11;77.61
65718;BME280;52445;52.466;-1.016;2023-04-21T11:05:34;99804.56;;;9.46;77.12
65718;BME280;52445;52.466;-1.016;2023-04-21T11:08:04;99806.22;;;9.72;77.06
65718;BME280;52445;52.466;-1.016;2023-04-21T11:10:41;99811.31;;;9.97;76.28
65718;BME280;52445;52.466;-1.016;2023-04-21T11:13:08;99802.69;;;10.01;76.36
65718;BME280;52445;52.466;-1.016;2023-04-21T11:15:34;99804.41;;;9.96;74.71
65718;BME280;52445;52.466;-1.016;2023-04-21T11:18:01;99800.13;;;9.95;74.37
65718;BME280;52445;52.466;-1.016;2023-04-21T11:20:28;99806.13;;;9.97;74.21
65718;BME280;52445;52.466;-1.016;2023-04-21T11:22:56;99798.38;;;9.99;73.90
65718;BME280;52445;52.466;-1.016;2023-04-21T11:25:22;99802.63;;;10.14;74.99
65718;BME280;52445;52.466;-1.016;2023-04-21T11:27:53;99800.78;;;10.35;74.40
65718;BME280;52445;52.466;-1.016;2023-04-21T11:30:31;99802.38;;;10.61;74.85
65718;BME280;52445;52.466;-1.016;2023-04-21T11:32:59;99793.53;;;10.87;74.02
65718;BME280;52445;52.466;-1.016;2023-04-21T11:35:26;99800.34;;;11.00;73.28
65718;BME280;52445;52.466;-1.016;2023-04-21T11:37:54;99795.06;;;11.13;72.92
65718;BME280;52445;52.466;-1.016;2023-04-21T11:40:20;99799.31;;;11.18;72.16
65718;BME280;52445;52.466;-1.016;2023-04-21T11:42:47;99803.69;;;11.15;70.38
65718;BME280;52445;52.466;-1.016;2023-04-21T11:45:16;99800.09;;;11.28;71.26
65718;BME280;52445;52.466;-1.016;2023-04-21T11:47:47;99801.78;;;11.32;70.37
65718;BME280;52445;52.466;-1.016;2023-04-21T11:50:29;99803.56;;;11.30;69.66
65718;BME280;52445;52.466;-1.016;2023-04-21T11:52:57;99793.09;;;11.37;68.90
65718;BME280;52445;52.466;-1.016;2023-04-21T11:55:24;99801.72;;;11.42;69.85
65718;BME280;52445;52.466;-1.016;2023-04-21T11:57:51;99808.59;;;11.46;69.56
65718;BME280;52445;52.466;-1.016;2023-04-21T12:00:18;99811.25;;;11.35;68.92
65718;BME280;52445;52.466;-1.016;2023-04-21T12:02:54;99804.47;;;11.23;68.16
65718;BME280;52445;52.466;-1.016;2023-04-21T12:05:21;99801.88;;;11.23;67.62
65718;BME280;52445;52.466;-1.016;2023-04-21T12:07:49;99801.94;;;11.14;67.54
65718;BME280;52445;52.466;-1.016;2023-04-21T12:10:19;99810.72;;;11.02;68.08
65718;BME280;52445;52.466;-1.016;2023-04-21T12:12:47;99814.22;;;10.96;68.43
65718;BME280;52445;52.466;-1.016;2023-04-21T12:15:19;99818.53;;;10.97;68.87
65718;BME280;52445;52.466;-1.016;2023-04-21T12:17:49;99807.34;;;10.93;68.46
65718;BME280;52445;52.466;-1.016;2023-04-21T12:20:18;99821.22;;;10.85;67.45
65718;BME280;52445;52.466;-1.016;2023-04-21T12:22:45;99807.41;;;10.83;68.33
65718;BME280;52445;52.466;-1.016;2023-04-21T12:25:12;99823.72;;;10.96;67.15
65718;BME280;52445;52.466;-1.016;2023-04-21T12:27:51;99816.72;;;11.05;67.03
65718;BME280;52445;52.466;-1.016;2023-04-21T12:30:18;99813.31;;;11.02;67.22
65718;BME280;52445;52.466;-1.016;2023-04-21T12:32:45;99803.84;;;10.96;65.53
65718;BME280;52445;52.466;-1.016;2023-04-21T12:35:14;99811.66;;;10.88;66.35
65718;BME280;52445;52.466;-1.016;2023-04-21T12:37:41;99816.78;;;11.01;66.63
65718;BME280;52445;52.466;-1.016;2023-04-21T12:40:07;99800.31;;;11.07;66.76
65718;BME280;52445;52.466;-1.016;2023-04-21T12:42:34;99809.69;;;11.18;66.95
65718;BME280;52445;52.466;-1.016;2023-04-21T12:45:04;99803.59;;;11.26;65.77
65718;BME280;52445;52.466;-1.016;2023-04-21T12:47:31;99799.22;;;11.29;65.33
65718;BME280;52445;52.466;-1.016;2023-04-21T12:49:58;99811.31;;;11.34;65.89
65718;BME280;52445;52.466;-1.016;2023-04-21T12:52:24;99806.97;;;11.32;65.22
65718;BME280;52445;52.466;-1.016;2023-04-21T12:54:52;99812.28;;;11.20;65.33
65718;BME280;52445;52.466;-1.016;2023-04-21T12:57:20;99806.25;;;11.18;65.32
65718;BME280;52445;52.466;-1.016;2023-04-21T12:59:47;99811.47;;;11.15;65.46
65718;BME280;52445;52.466;-1.016;2023-04-21T13:02:13;99817.44;;;11.23;65.39
65718;BME280;52445;52.466;-1.016;2023-04-21T13:04:40;99810.47;;;11.28;65.95
65718;BME280;52445;52.466;-1.016;2023-04-21T13:07:08;99811.31;;;11.34;64.68
65718;BME280;52445;52.466;-1.016;2023-04-21T13:09:35;99820.66;;;11.47;64.92
65718;BME280;52445;52.466;-1.016;2023-04-21T13:12:01;99808.47;;;11.55;64.19